Time;durP1;ratioP1;P1;durP2;ratioP2;P2;SDS_P1;SDS_P2;PMS_P1;PMS_P2;Temp;Humidity;BMP_temperature;BMP_pressure;BME280_temperature;BME280_humidity;BME280_pressure;Samples;Min_cycle;Max_cycle;Signal;HPM_P1;HPM_P2
2022/10/24 00:00:32;;;;;;;146.38;53.13;;;;;;;;;;6274292;28;20059;-66
2022/10/24 00:03:53;;;;;;;138.00;51.65;;;;;;;;;;6272665;28;20561;-66
2022/10/24 00:06:53;;;;;;;143.20;55.40;;;;;;;;;;6274314;28;20048;-65
2022/10/24 00:09:54;;;;;;;149.15;57.42;;;;;;;;;;6275244;28;20052;-66
2022/10/24 00:12:54;;;;;;;144.80;55.85;;;;;;;;;;6293596;28;20132;-68
2022/10/24 00:15:55;;;;;;;150.13;58.97;;;;;;;;;;6272932;28;20041;-66
2022/10/24 00:18:56;;;;;;;141.52;54.05;;;;;;;;;;6269943;28;20080;-63
2022/10/24 00:21:56;;;;;;;131.45;51.60;;;;;;;;;;6271445;28;20048;-67
2022/10/24 00:24:57;;;;;;;123.13;47.90;;;;;;;;;;6267125;28;20138;-68
2022/10/24 00:27:57;;;;;;;129.05;49.28;;;;;;;;;;6271311;28;20643;-67
2022/10/24 00:30:59;;;;;;;135.20;57.88;;;;;;;;;;6272087;28;20055;-68
2022/10/24 00:34:00;;;;;;;158.73;66.25;;;;;;;;;;6291630;28;20048;-69
2022/10/24 00:37:01;;;;;;;151.18;60.33;;;;;;;;;;6277356;28;20567;-68
2022/10/24 00:40:04;;;;;;;153.45;55.92;;;;;;;;;;6278582;28;20088;-65
2022/10/24 00:43:16;;;;;;;146.43;55.47;;;;;;;;;;6287303;28;20076;-67
2022/10/24 00:46:18;;;;;;;140.02;54.30;;;;;;;;;;6271589;28;20056;-64
2022/10/24 00:49:24;;;;;;;143.30;56.05;;;;;;;;;;6283980;28;20495;-68
2022/10/24 00:52:39;;;;;;;131.00;51.90;;;;;;;;;;6269638;28;20183;-65
2022/10/24 00:55:42;;;;;;;121.38;47.60;;;;;;;;;;6270057;28;20128;-66
2022/10/24 00:58:44;;;;;;;119.22;45.90;;;;;;;;;;6270183;28;20071;-63
2022/10/24 01:01:46;;;;;;;118.90;49.45;;;;;;;;;;6269659;28;20201;-63
2022/10/24 01:04:47;;;;;;;125.15;50.00;;;;;;;;;;6268993;28;20064;-63
2022/10/24 01:08:20;;;;;;;137.33;56.67;;;;;;;;;;6284000;28;20058;-69
2022/10/24 01:11:49;;;;;;;129.52;53.28;;;;;;;;;;6280132;28;20046;-67
2022/10/24 01:15:06;;;;;;;128.60;53.22;;;;;;;;;;6267417;28;20131;-69
2022/10/24 01:18:21;;;;;;;137.73;57.30;;;;;;;;;;6265358;28;20060;-68
2022/10/24 01:21:45;;;;;;;139.35;56.33;;;;;;;;;;6271292;28;20477;-68
2022/10/24 01:24:48;;;;;;;143.40;57.72;;;;;;;;;;6279164;28;20062;-68
2022/10/24 01:27:55;;;;;;;131.18;52.58;;;;;;;;;;6284889;28;20498;-67
2022/10/24 01:31:06;;;;;;;135.60;53.15;;;;;;;;;;6267120;28;20083;-69
2022/10/24 01:34:15;;;;;;;124.05;49.75;;;;;;;;;;6264429;28;20079;-67
2022/10/24 01:37:25;;;;;;;121.15;49.03;;;;;;;;;;6268909;28;20051;-68
2022/10/24 01:40:53;;;;;;;126.78;51.13;;;;;;;;;;6284368;28;20098;-68
2022/10/24 01:44:01;;;;;;;116.80;47.00;;;;;;;;;;6277751;28;20080;-63
2022/10/24 01:47:11;;;;;;;118.55;47.33;;;;;;;;;;6267365;28;20058;-66
2022/10/24 01:50:13;;;;;;;118.00;47.92;;;;;;;;;;6267657;28;20124;-67
2022/10/24 01:53:14;;;;;;;104.65;44.42;;;;;;;;;;6288542;28;20578;-68
2022/10/24 01:56:15;;;;;;;104.25;43.85;;;;;;;;;;6273875;28;20044;-68
2022/10/24 01:59:24;;;;;;;105.50;45.58;;;;;;;;;;6268456;28;20128;-63
2022/10/24 02:02:44;;;;;;;112.72;45.97;;;;;;;;;;6269507;28;20049;-64
2022/10/24 02:05:50;;;;;;;117.68;47.08;;;;;;;;;;6268605;28;20725;-64
2022/10/24 02:08:57;;;;;;;105.68;44.40;;;;;;;;;;6262925;28;20571;-66
2022/10/24 02:11:59;;;;;;;108.57;43.45;;;;;;;;;;6265700;28;20106;-67
2022/10/24 02:15:05;;;;;;;113.25;46.13;;;;;;;;;;6270358;28;20502;-66
2022/10/24 02:18:07;;;;;;;116.40;43.63;;;;;;;;;;6273973;28;20131;-68
2022/10/24 02:21:16;;;;;;;98.85;41.30;;;;;;;;;;6285838;28;20470;-68
2022/10/24 02:24:45;;;;;;;109.63;45.25;;;;;;;;;;6265524;28;20497;-67
2022/10/24 02:27:52;;;;;;;108.88;43.20;;;;;;;;;;6262435;28;20056;-68
2022/10/24 02:31:10;;;;;;;110.38;43.75;;;;;;;;;;6285746;28;20060;-68
2022/10/24 02:34:12;;;;;;;102.95;44.17;;;;;;;;;;6265774;28;20053;-68
2022/10/24 02:37:15;;;;;;;110.07;44.35;;;;;;;;;;6289332;28;20052;-68
2022/10/24 02:40:18;;;;;;;111.18;43.13;;;;;;;;;;6275910;28;20052;-66
2022/10/24 02:43:21;;;;;;;109.10;48.78;;;;;;;;;;6265719;28;20113;-66
2022/10/24 02:46:23;;;;;;;117.47;48.33;;;;;;;;;;6266924;28;20064;-68
2022/10/24 02:49:24;;;;;;;114.65;44.30;;;;;;;;;;6287799;28;20097;-68
2022/10/24 02:52:25;;;;;;;102.82;42.85;;;;;;;;;;6268282;28;20052;-67
2022/10/24 02:55:25;;;;;;;109.97;45.88;;;;;;;;;;6272610;28;20047;-68
2022/10/24 02:58:26;;;;;;;109.47;48.85;;;;;;;;;;6285992;28;20048;-67
2022/10/24 03:01:26;;;;;;;98.95;41.10;;;;;;;;;;6278863;28;20067;-67
2022/10/24 03:04:27;;;;;;;100.93;41.80;;;;;;;;;;6284631;28;20060;-67
2022/10/24 03:07:27;;;;;;;100.97;42.53;;;;;;;;;;6278344;28;20075;-68
2022/10/24 03:10:28;;;;;;;110.03;44.85;;;;;;;;;;6267233;28;20507;-67
2022/10/24 03:13:29;;;;;;;121.35;44.45;;;;;;;;;;6266850;28;20044;-69
2022/10/24 03:16:30;;;;;;;113.10;44.83;;;;;;;;;;6269458;28;20044;-68
2022/10/24 03:19:30;;;;;;;136.68;63.15;;;;;;;;;;6292531;28;20060;-68
2022/10/24 03:22:31;;;;;;;115.30;47.55;;;;;;;;;;6268710;28;20106;-68
2022/10/24 03:25:32;;;;;;;115.75;44.92;;;;;;;;;;6264091;28;20079;-64
2022/10/24 03:28:32;;;;;;;110.60;42.13;;;;;;;;;;6283129;28;20102;-68
2022/10/24 03:31:33;;;;;;;120.03;52.40;;;;;;;;;;6281301;28;20655;-67
2022/10/24 03:34:34;;;;;;;124.75;51.65;;;;;;;;;;6287644;28;20056;-68
2022/10/24 03:37:34;;;;;;;131.82;53.78;;;;;;;;;;6275282;28;20049;-67
2022/10/24 03:40:35;;;;;;;120.10;50.90;;;;;;;;;;6280222;28;20135;-69
2022/10/24 03:43:35;;;;;;;127.45;49.22;;;;;;;;;;6274498;28;20041;-67
2022/10/24 03:46:36;;;;;;;137.57;61.90;;;;;;;;;;6267227;28;20053;-69
2022/10/24 03:49:37;;;;;;;113.78;46.42;;;;;;;;;;6263407;28;20048;-66
2022/10/24 03:52:37;;;;;;;120.75;50.42;;;;;;;;;;6269215;28;20057;-67
2022/10/24 03:55:38;;;;;;;118.05;50.70;;;;;;;;;;6271383;28;20045;-68
2022/10/24 03:58:38;;;;;;;127.05;50.85;;;;;;;;;;6268939;28;20094;-65
2022/10/24 04:01:39;;;;;;;116.57;47.25;;;;;;;;;;6277661;28;20072;-68
2022/10/24 04:04:41;;;;;;;121.82;46.72;;;;;;;;;;6288627;28;20070;-67
2022/10/24 04:07:41;;;;;;;124.88;48.72;;;;;;;;;;6274623;28;20048;-67
2022/10/24 04:10:42;;;;;;;114.35;47.17;;;;;;;;;;6294255;28;20097;-67
2022/10/24 04:13:43;;;;;;;114.55;46.92;;;;;;;;;;6269333;28;20041;-68
2022/10/24 04:16:43;;;;;;;117.20;47.97;;;;;;;;;;6269197;28;20048;-67
2022/10/24 04:19:44;;;;;;;112.25;44.88;;;;;;;;;;6279124;28;20045;-69
2022/10/24 04:22:46;;;;;;;137.43;60.97;;;;;;;;;;6265713;28;20044;-64
2022/10/24 04:25:46;;;;;;;128.23;54.97;;;;;;;;;;6267789;28;20132;-67
2022/10/24 04:28:47;;;;;;;126.13;52.65;;;;;;;;;;6294005;28;20048;-67
2022/10/24 04:31:47;;;;;;;115.03;45.03;;;;;;;;;;6272432;28;20106;-68
2022/10/24 04:34:48;;;;;;;110.60;46.38;;;;;;;;;;6269595;28;20044;-67
2022/10/24 04:37:48;;;;;;;115.93;46.65;;;;;;;;;;6267860;28;20135;-67
2022/10/24 04:40:52;;;;;;;109.30;44.85;;;;;;;;;;6270736;28;20529;-66
2022/10/24 04:43:53;;;;;;;107.40;45.05;;;;;;;;;;6266552;28;20570;-67
2022/10/24 04:46:53;;;;;;;110.22;45.05;;;;;;;;;;6271508;28;20083;-66
2022/10/24 04:49:54;;;;;;;108.05;45.42;;;;;;;;;;6269443;28;20041;-68
2022/10/24 04:52:54;;;;;;;145.55;67.22;;;;;;;;;;6270772;28;20834;-67
2022/10/24 04:55:55;;;;;;;146.85;62.00;;;;;;;;;;6270087;28;20448;-68
2022/10/24 04:58:55;;;;;;;138.80;53.05;;;;;;;;;;6283532;28;20041;-66
2022/10/24 05:01:56;;;;;;;132.48;54.10;;;;;;;;;;6278566;28;20180;-68
2022/10/24 05:04:56;;;;;;;133.43;58.30;;;;;;;;;;6263790;28;20495;-67
2022/10/24 05:07:57;;;;;;;124.80;50.70;;;;;;;;;;6274272;28;20056;-68
2022/10/24 05:10:57;;;;;;;126.53;51.85;;;;;;;;;;6288424;28;20048;-68
2022/10/24 05:13:58;;;;;;;123.90;51.47;;;;;;;;;;6280987;28;20067;-69
2022/10/24 05:16:59;;;;;;;146.88;65.45;;;;;;;;;;6270641;28;20052;-68
2022/10/24 05:19:59;;;;;;;139.57;64.38;;;;;;;;;;6267212;28;20532;-65
2022/10/24 05:23:00;;;;;;;118.72;52.05;;;;;;;;;;6274447;28;20055;-69
2022/10/24 05:26:00;;;;;;;142.70;58.78;;;;;;;;;;6273213;28;20033;-66
2022/10/24 05:29:01;;;;;;;122.97;52.15;;;;;;;;;;6270173;28;20068;-64
2022/10/24 05:32:01;;;;;;;135.60;57.67;;;;;;;;;;6270625;28;20605;-66
2022/10/24 05:35:03;;;;;;;128.07;53.33;;;;;;;;;;6267728;28;20475;-68
2022/10/24 05:38:03;;;;;;;141.23;62.17;;;;;;;;;;6269443;28;20036;-65
2022/10/24 05:41:04;;;;;;;128.70;50.08;;;;;;;;;;6267975;28;20040;-63
2022/10/24 05:44:05;;;;;;;144.10;61.38;;;;;;;;;;6266886;28;20412;-63
2022/10/24 05:47:05;;;;;;;143.05;55.72;;;;;;;;;;6264677;28;20192;-65
2022/10/24 05:50:07;;;;;;;143.60;56.20;;;;;;;;;;6267096;28;20044;-63
2022/10/24 05:53:08;;;;;;;138.95;53.90;;;;;;;;;;6266599;28;20053;-65
2022/10/24 05:56:09;;;;;;;136.02;53.67;;;;;;;;;;6268823;28;20075;-67
2022/10/24 05:59:09;;;;;;;134.07;52.65;;;;;;;;;;6273881;28;20055;-67
2022/10/24 06:02:17;;;;;;;148.45;54.75;;;;;;;;;;6270239;28;20036;-68
2022/10/24 06:05:18;;;;;;;135.65;54.75;;;;;;;;;;6268433;28;20139;-67
2022/10/24 06:08:18;;;;;;;136.38;58.03;;;;;;;;;;6267193;28;20052;-64
2022/10/24 06:11:19;;;;;;;139.70;54.80;;;;;;;;;;6267998;28;20494;-68
2022/10/24 06:14:20;;;;;;;135.88;58.42;;;;;;;;;;6270149;28;20052;-66
2022/10/24 06:17:20;;;;;;;132.48;54.47;;;;;;;;;;6267657;28;20044;-69
2022/10/24 06:20:21;;;;;;;101.68;37.53;;;;;;;;;;6267506;28;20127;-67
2022/10/24 06:23:22;;;;;;;112.60;44.28;;;;;;;;;;6266795;28;20049;-68
2022/10/24 06:26:23;;;;;;;86.20;33.73;;;;;;;;;;6267964;28;20126;-67
2022/10/24 06:29:23;;;;;;;77.78;29.83;;;;;;;;;;6266376;28;20305;-64
2022/10/24 06:32:24;;;;;;;68.38;24.77;;;;;;;;;;6266700;28;20048;-68
2022/10/24 06:35:24;;;;;;;63.28;24.17;;;;;;;;;;6262848;28;20834;-68
2022/10/24 06:38:25;;;;;;;57.45;23.85;;;;;;;;;;6269513;28;20098;-68
2022/10/24 06:41:25;;;;;;;68.15;29.42;;;;;;;;;;6268462;28;20048;-66
2022/10/24 06:44:27;;;;;;;;;;;;;;;;;;6272477;28;20087;-66
2022/10/24 06:47:29;;;;;;;55.08;22.20;;;;;;;;;;6269062;28;19970;-68
2022/10/24 06:50:30;;;;;;;58.30;21.65;;;;;;;;;;6266823;28;20135;-69
2022/10/24 06:53:31;;;;;;;60.00;22.60;;;;;;;;;;6263768;28;20045;-64
2022/10/24 06:56:32;;;;;;;61.90;25.63;;;;;;;;;;6270043;28;20112;-68
2022/10/24 06:59:33;;;;;;;59.70;22.50;;;;;;;;;;6266089;28;20037;-65
2022/10/24 07:02:33;;;;;;;58.28;22.13;;;;;;;;;;6268520;28;20072;-65
2022/10/24 07:05:35;;;;;;;51.35;21.00;;;;;;;;;;6258812;28;20426;-66
2022/10/24 07:08:36;;;;;;;50.42;19.75;;;;;;;;;;6291596;28;20487;-64
2022/10/24 07:11:37;;;;;;;49.88;18.30;;;;;;;;;;6282458;28;20049;-67
2022/10/24 07:14:37;;;;;;;45.40;18.05;;;;;;;;;;6264548;28;20084;-64
2022/10/24 07:17:42;;;;;;;40.88;16.63;;;;;;;;;;6267164;28;20471;-66
2022/10/24 07:20:43;;;;;;;37.17;15.88;;;;;;;;;;6266111;28;20051;-66
2022/10/24 07:23:43;;;;;;;45.75;19.33;;;;;;;;;;6262819;28;20136;-67
2022/10/24 07:26:44;;;;;;;37.88;17.10;;;;;;;;;;6271622;28;20040;-65
2022/10/24 07:29:44;;;;;;;44.45;20.42;;;;;;;;;;6273037;28;20052;-67
2022/10/24 07:32:45;;;;;;;44.85;17.80;;;;;;;;;;6270117;28;20054;-65
2022/10/24 07:35:45;;;;;;;46.25;20.98;;;;;;;;;;6271970;28;20067;-70
2022/10/24 07:38:47;;;;;;;75.80;25.00;;;;;;;;;;6273975;28;20076;-66
2022/10/24 07:41:48;;;;;;;47.03;17.58;;;;;;;;;;6270457;28;20049;-69
2022/10/24 07:44:49;;;;;;;41.95;17.48;;;;;;;;;;6271433;28;20502;-64
2022/10/24 07:47:49;;;;;;;41.03;18.10;;;;;;;;;;6270469;28;20585;-67
2022/10/24 07:50:50;;;;;;;38.55;16.98;;;;;;;;;;6272856;28;20099;-67
2022/10/24 07:53:50;;;;;;;36.63;16.40;;;;;;;;;;6270607;28;20098;-68
2022/10/24 07:56:51;;;;;;;38.25;17.45;;;;;;;;;;6272839;28;20123;-67
2022/10/24 07:59:52;;;;;;;47.40;20.80;;;;;;;;;;6270213;28;20060;-65
2022/10/24 08:02:52;;;;;;;37.95;18.10;;;;;;;;;;6284609;28;20086;-69
2022/10/24 08:05:55;;;;;;;35.42;15.00;;;;;;;;;;6291888;28;20049;-70
2022/10/24 08:08:56;;;;;;;36.92;17.10;;;;;;;;;;6294470;28;20047;-69
2022/10/24 08:11:57;;;;;;;39.42;18.52;;;;;;;;;;6292702;28;20040;-65
2022/10/24 08:14:58;;;;;;;31.25;13.63;;;;;;;;;;6290627;28;20139;-64
2022/10/24 08:17:58;;;;;;;29.85;12.35;;;;;;;;;;6294721;28;20105;-67
2022/10/24 08:21:01;;;;;;;27.42;11.93;;;;;;;;;;6292197;28;20139;-68
2022/10/24 08:24:02;;;;;;;34.63;12.68;;;;;;;;;;6291593;28;20526;-67
2022/10/24 08:27:02;;;;;;;30.75;11.90;;;;;;;;;;6293402;28;20052;-66
2022/10/24 08:30:03;;;;;;;31.10;11.77;;;;;;;;;;6291690;28;20048;-68
2022/10/24 08:33:04;;;;;;;26.30;10.43;;;;;;;;;;6293426;28;20064;-66
2022/10/24 08:36:15;;;;;;;23.48;10.60;;;;;;;;;;6290273;28;20078;-65
2022/10/24 08:39:16;;;;;;;24.38;12.93;;;;;;;;;;6293578;28;20131;-66
2022/10/24 08:42:17;;;;;;;24.67;10.98;;;;;;;;;;6294158;28;20423;-69
2022/10/24 08:45:25;;;;;;;49.70;25.10;;;;;;;;;;6291734;28;20520;-64
2022/10/24 08:48:35;;;;;;;73.97;33.40;;;;;;;;;;6292591;28;20589;-67
2022/10/24 08:51:52;;;;;;;27.33;14.13;;;;;;;;;;6291987;28;20072;-66
2022/10/24 08:54:54;;;;;;;27.58;11.02;;;;;;;;;;6287144;28;20049;-67
2022/10/24 08:57:57;;;;;;;19.45;8.98;;;;;;;;;;6278811;28;20558;-67
2022/10/24 09:01:01;;;;;;;28.13;10.40;;;;;;;;;;6269703;28;20122;-65
2022/10/24 09:04:07;;;;;;;18.67;8.75;;;;;;;;;;6270821;28;20083;-66
2022/10/24 09:07:16;;;;;;;21.30;8.65;;;;;;;;;;6266075;28;20131;-65
2022/10/24 09:10:22;;;;;;;21.83;10.45;;;;;;;;;;6268375;28;20044;-68
2022/10/24 09:13:25;;;;;;;23.63;10.55;;;;;;;;;;6269569;28;20040;-64
2022/10/24 09:16:26;;;;;;;21.48;9.52;;;;;;;;;;6266278;28;20702;-66
2022/10/24 09:19:29;;;;;;;27.70;9.25;;;;;;;;;;6266540;28;20048;-64
2022/10/24 09:22:33;;;;;;;21.70;9.93;;;;;;;;;;6287681;28;20490;-68
2022/10/24 09:25:36;;;;;;;36.28;11.75;;;;;;;;;;6291961;28;20051;-62
2022/10/24 09:28:38;;;;;;;40.60;14.18;;;;;;;;;;6291500;28;20047;-62
2022/10/24 09:31:39;;;;;;;33.55;11.65;;;;;;;;;;6292305;28;20072;-62
2022/10/24 09:34:39;;;;;;;35.22;12.88;;;;;;;;;;6292227;28;20068;-63
2022/10/24 09:37:47;;;;;;;26.05;10.82;;;;;;;;;;6291766;28;20055;-66
2022/10/24 09:40:51;;;;;;;41.03;12.98;;;;;;;;;;6276734;28;20068;-66
2022/10/24 09:43:58;;;;;;;35.63;11.70;;;;;;;;;;6269466;28;20056;-65
2022/10/24 09:47:00;;;;;;;27.45;11.15;;;;;;;;;;6264994;28;20053;-70
2022/10/24 09:50:01;;;;;;;24.45;9.50;;;;;;;;;;6264856;28;20160;-67
2022/10/24 09:53:03;;;;;;;25.50;11.75;;;;;;;;;;6250529;28;20052;-66
2022/10/24 09:56:11;;;;;;;24.48;9.32;;;;;;;;;;6266316;28;20045;-68
2022/10/24 09:59:48;;;;;;;23.20;10.15;;;;;;;;;;6265900;28;20535;-69
2022/10/24 10:03:00;;;;;;;23.08;10.13;;;;;;;;;;6262281;28;20136;-63
2022/10/24 10:06:16;;;;;;;22.30;9.68;;;;;;;;;;6267585;28;20177;-69
2022/10/24 10:09:25;;;;;;;20.85;9.50;;;;;;;;;;6265454;28;22384;-65
2022/10/24 10:12:40;;;;;;;27.98;9.10;;;;;;;;;;6263208;28;20045;-67
2022/10/24 10:15:49;;;;;;;25.45;9.13;;;;;;;;;;6266188;28;20047;-69
2022/10/24 10:18:59;;;;;;;19.98;9.23;;;;;;;;;;6269780;28;20517;-70
2022/10/24 10:22:06;;;;;;;21.92;9.90;;;;;;;;;;6268274;28;20049;-65
2022/10/24 10:25:28;;;;;;;21.98;8.98;;;;;;;;;;6267802;28;20083;-65
2022/10/24 10:28:32;;;;;;;19.10;8.48;;;;;;;;;;6264079;28;20052;-68
2022/10/24 10:31:42;;;;;;;27.20;10.75;;;;;;;;;;6262632;28;20474;-68
2022/10/24 10:34:53;;;;;;;24.20;10.05;;;;;;;;;;6269763;28;20629;-65
2022/10/24 10:38:01;;;;;;;25.63;9.87;;;;;;;;;;6286568;28;20135;-71
2022/10/24 10:41:11;;;;;;;21.95;9.40;;;;;;;;;;6289658;28;20049;-68
2022/10/24 10:44:39;;;;;;;25.95;9.05;;;;;;;;;;6289133;28;20440;-71
2022/10/24 10:48:02;;;;;;;23.23;9.55;;;;;;;;;;6268066;28;20045;-70
2022/10/24 10:51:18;;;;;;;21.50;9.80;;;;;;;;;;6264376;28;20476;-66
2022/10/24 10:54:40;;;;;;;25.30;9.38;;;;;;;;;;6265792;28;20041;-69
2022/10/24 10:58:01;;;;;;;23.77;9.77;;;;;;;;;;6270111;28;20051;-64
2022/10/24 11:01:11;;;;;;;25.70;10.15;;;;;;;;;;6264804;28;20479;-67
2022/10/24 11:04:42;;;;;;;29.52;12.35;;;;;;;;;;6265490;28;20080;-70
2022/10/24 11:07:47;;;;;;;22.33;9.48;;;;;;;;;;6264170;28;20049;-69
2022/10/24 11:10:55;;;;;;;43.28;14.48;;;;;;;;;;6281000;28;20135;-70
2022/10/24 11:14:40;;;;;;;24.63;9.57;;;;;;;;;;6285902;28;20158;-70
2022/10/24 11:18:07;;;;;;;21.98;8.65;;;;;;;;;;6284538;28;20136;-71
2022/10/24 11:21:10;;;;;;;25.30;9.13;;;;;;;;;;6272977;28;20131;-68
2022/10/24 11:24:15;;;;;;;19.08;8.85;;;;;;;;;;6265050;28;20044;-69
2022/10/24 11:27:23;;;;;;;24.63;8.38;;;;;;;;;;6264622;28;20162;-69
2022/10/24 11:30:37;;;;;;;18.13;9.10;;;;;;;;;;6264659;28;20135;-69
2022/10/24 11:33:45;;;;;;;19.08;8.15;;;;;;;;;;6263779;28;20195;-70
2022/10/24 11:37:09;;;;;;;23.42;10.10;;;;;;;;;;6265308;28;20594;-70
2022/10/24 11:40:11;;;;;;;20.65;10.60;;;;;;;;;;6268069;28;20041;-67
2022/10/24 11:43:14;;;;;;;;;;;;;;;;;;6265659;28;20047;-70
2022/10/24 11:46:20;;;;;;;35.40;12.48;;;;;;;;;;6265767;28;19928;-68
2022/10/24 11:49:28;;;;;;;31.88;10.85;;;;;;;;;;6265368;28;20448;-66
2022/10/24 11:52:41;;;;;;;23.60;9.70;;;;;;;;;;6265685;28;20052;-68
2022/10/24 11:55:46;;;;;;;22.08;8.60;;;;;;;;;;6266162;28;20706;-71
2022/10/24 11:59:05;;;;;;;21.27;8.50;;;;;;;;;;6266665;28;20053;-68
2022/10/24 12:02:06;;;;;;;20.35;8.02;;;;;;;;;;6268331;28;20140;-68
2022/10/24 12:05:26;;;;;;;20.67;8.77;;;;;;;;;;6267206;28;20049;-66
2022/10/24 12:08:38;;;;;;;22.27;8.70;;;;;;;;;;6262155;28;20170;-65
2022/10/24 12:11:41;;;;;;;;;;;;;;;;;;6266474;28;20889;-65
2022/10/24 12:15:19;;;;;;;22.17;8.75;;;;;;;;;;6275329;28;20007;-68
2022/10/24 12:18:31;;;;;;;22.95;10.13;;;;;;;;;;6290997;28;20487;-67
2022/10/24 12:21:53;;;;;;;22.38;10.02;;;;;;;;;;6292311;28;20045;-66
2022/10/24 12:25:06;;;;;;;21.83;9.55;;;;;;;;;;6274433;28;20048;-64
2022/10/24 12:28:19;;;;;;;22.77;11.07;;;;;;;;;;6268465;28;20078;-64
2022/10/24 12:31:24;;;;;;;21.38;10.10;;;;;;;;;;6266449;28;20048;-70
2022/10/24 12:34:26;;;;;;;27.55;10.05;;;;;;;;;;6270905;28;20187;-67
2022/10/24 12:37:32;;;;;;;26.50;10.50;;;;;;;;;;6269509;28;20044;-66
2022/10/24 12:40:51;;;;;;;24.20;10.18;;;;;;;;;;6269059;28;20044;-66
2022/10/24 12:44:30;;;;;;;22.98;10.38;;;;;;;;;;6264613;28;20137;-68
2022/10/24 12:47:50;;;;;;;21.95;10.68;;;;;;;;;;6268150;28;21288;-66
2022/10/24 12:51:24;;;;;;;27.80;9.90;;;;;;;;;;6268916;28;20101;-66
2022/10/24 12:54:40;;;;;;;21.40;9.98;;;;;;;;;;6266592;28;20034;-64
2022/10/24 12:57:44;;;;;;;22.60;9.95;;;;;;;;;;6272191;28;20045;-68
2022/10/24 13:00:58;;;;;;;24.23;10.55;;;;;;;;;;6267987;28;20430;-66
2022/10/24 13:04:18;;;;;;;24.35;11.63;;;;;;;;;;6268413;28;20080;-68
2022/10/24 13:07:53;;;;;;;24.25;10.90;;;;;;;;;;6268544;28;20139;-68
2022/10/24 13:11:02;;;;;;;23.02;10.32;;;;;;;;;;6267936;28;20056;-69
2022/10/24 13:14:08;;;;;;;17.05;9.40;;;;;;;;;;6267359;28;20165;-71
2022/10/24 13:17:30;;;;;;;17.08;9.30;;;;;;;;;;6268968;28;20045;-66
2022/10/24 13:20:41;;;;;;;17.60;8.48;;;;;;;;;;6259742;28;20135;-68
2022/10/24 13:23:45;;;;;;;21.08;10.02;;;;;;;;;;6262918;28;20041;-68
2022/10/24 13:27:13;;;;;;;23.70;9.70;;;;;;;;;;6254300;28;20049;-66
2022/10/24 13:30:25;;;;;;;20.55;8.93;;;;;;;;;;6256684;28;20061;-68
2022/10/24 13:33:35;;;;;;;20.50;10.02;;;;;;;;;;6251422;28;20068;-67
2022/10/24 13:36:36;;;;;;;23.20;8.95;;;;;;;;;;6250821;28;20164;-68
2022/10/24 13:40:07;;;;;;;18.33;9.45;;;;;;;;;;6253332;28;20049;-67
2022/10/24 13:43:20;;;;;;;25.50;11.88;;;;;;;;;;6245892;28;20757;-64
2022/10/24 13:46:43;;;;;;;24.23;10.48;;;;;;;;;;6252190;28;20132;-64
2022/10/24 13:49:56;;;;;;;25.23;10.68;;;;;;;;;;6252060;28;21047;-68
2022/10/24 13:53:00;;;;;;;27.60;10.68;;;;;;;;;;6253357;28;20041;-65
2022/10/24 13:56:12;;;;;;;21.88;10.43;;;;;;;;;;6250778;28;20126;-67
2022/10/24 13:59:27;;;;;;;21.52;10.38;;;;;;;;;;6256708;28;20087;-69
2022/10/24 14:02:31;;;;;;;24.10;10.52;;;;;;;;;;6250925;28;20735;-68
2022/10/24 14:05:38;;;;;;;19.70;10.23;;;;;;;;;;6249922;28;20602;-68
2022/10/24 14:08:50;;;;;;;26.80;13.07;;;;;;;;;;6249976;28;20091;-70
2022/10/24 14:11:51;;;;;;;27.77;11.63;;;;;;;;;;6253389;28;20582;-65
2022/10/24 14:14:52;;;;;;;21.42;10.27;;;;;;;;;;6252948;28;20056;-67
2022/10/24 14:18:12;;;;;;;27.25;11.18;;;;;;;;;;6250156;28;20224;-64
2022/10/24 14:21:18;;;;;;;24.33;10.98;;;;;;;;;;6250458;28;20052;-66
2022/10/24 14:24:21;;;;;;;31.63;11.75;;;;;;;;;;6250483;28;20423;-64
2022/10/24 14:27:22;;;;;;;27.98;11.38;;;;;;;;;;6249013;28;20498;-64
2022/10/24 14:30:25;;;;;;;24.40;11.77;;;;;;;;;;6251425;28;20110;-64
2022/10/24 14:33:40;;;;;;;26.70;10.80;;;;;;;;;;6251978;28;20304;-67
2022/10/24 14:36:40;;;;;;;25.83;11.57;;;;;;;;;;6249998;28;20049;-67
2022/10/24 14:39:42;;;;;;;26.52;11.88;;;;;;;;;;6252584;28;20053;-68
2022/10/24 14:42:45;;;;;;;26.38;11.35;;;;;;;;;;6253103;28;20168;-65
2022/10/24 14:46:12;;;;;;;32.25;12.15;;;;;;;;;;6255560;28;20834;-66
2022/10/24 14:49:35;;;;;;;27.95;12.52;;;;;;;;;;6262824;28;20143;-67
2022/10/24 14:52:35;;;;;;;33.92;16.80;;;;;;;;;;6255111;28;20121;-66
2022/10/24 14:55:36;;;;;;;56.38;34.65;;;;;;;;;;6250626;28;20127;-63
2022/10/24 14:58:37;;;;;;;43.83;26.95;;;;;;;;;;6259282;28;20053;-66
2022/10/24 15:01:38;;;;;;;42.35;23.70;;;;;;;;;;6259612;28;20194;-67
2022/10/24 15:04:44;;;;;;;32.67;15.15;;;;;;;;;;6258173;28;20057;-65
2022/10/24 15:07:47;;;;;;;25.63;12.18;;;;;;;;;;6251008;28;20475;-66
2022/10/24 15:10:59;;;;;;;60.15;33.63;;;;;;;;;;6255939;28;20053;-68
2022/10/24 15:14:00;;;;;;;33.45;16.90;;;;;;;;;;6253861;28;20083;-68
2022/10/24 15:17:20;;;;;;;36.35;18.95;;;;;;;;;;6252411;28;20041;-68
2022/10/24 15:20:26;;;;;;;38.55;18.80;;;;;;;;;;6252009;28;20045;-65
2022/10/24 15:23:31;;;;;;;33.35;15.50;;;;;;;;;;6259350;28;20059;-67
2022/10/24 15:26:39;;;;;;;34.22;14.27;;;;;;;;;;6258252;28;20113;-67
2022/10/24 15:29:40;;;;;;;31.80;14.48;;;;;;;;;;6253458;28;20118;-67
2022/10/24 15:32:40;;;;;;;28.90;13.00;;;;;;;;;;6250145;28;20041;-65
2022/10/24 15:35:41;;;;;;;33.45;12.95;;;;;;;;;;6249900;28;20049;-67
2022/10/24 15:38:43;;;;;;;;;;;;;;;;;;6251173;28;20051;-66
2022/10/24 15:41:43;;;;;;;26.42;12.25;;;;;;;;;;6251363;28;19928;-67
2022/10/24 15:44:44;;;;;;;26.23;12.25;;;;;;;;;;6256409;28;20060;-68
2022/10/24 15:47:44;;;;;;;27.58;12.43;;;;;;;;;;6255628;28;20106;-65
2022/10/24 15:50:45;;;;;;;30.85;12.05;;;;;;;;;;6261698;28;20041;-66
2022/10/24 15:53:48;;;;;;;28.35;13.15;;;;;;;;;;6265298;28;20053;-63
2022/10/24 15:56:49;;;;;;;27.92;11.05;;;;;;;;;;6262000;28;20053;-66
2022/10/24 15:59:49;;;;;;;25.40;11.57;;;;;;;;;;6264044;28;20109;-67
2022/10/24 16:02:53;;;;;;;27.73;11.93;;;;;;;;;;6263992;28;20104;-66
2022/10/24 16:05:56;;;;;;;25.50;11.70;;;;;;;;;;6260224;28;20061;-67
2022/10/24 16:08:57;;;;;;;28.42;15.98;;;;;;;;;;6263800;28;20053;-67
2022/10/24 16:11:58;;;;;;;24.80;11.85;;;;;;;;;;6264212;28;20051;-67
2022/10/24 16:14:58;;;;;;;25.85;12.02;;;;;;;;;;6265235;28;20056;-65
2022/10/24 16:17:59;;;;;;;24.13;10.77;;;;;;;;;;6261064;28;20044;-64
2022/10/24 16:21:00;;;;;;;34.70;12.98;;;;;;;;;;6258328;28;21445;-63
2022/10/24 16:24:00;;;;;;;29.88;13.07;;;;;;;;;;6255929;28;20082;-65
2022/10/24 16:27:01;;;;;;;31.15;16.42;;;;;;;;;;6252048;28;20052;-67
2022/10/24 16:30:02;;;;;;;26.38;13.85;;;;;;;;;;6253819;28;20045;-66
2022/10/24 16:33:03;;;;;;;27.48;13.05;;;;;;;;;;6256072;28;20484;-67
2022/10/24 16:36:03;;;;;;;34.67;17.85;;;;;;;;;;6253274;28;20095;-70
2022/10/24 16:39:04;;;;;;;32.25;12.82;;;;;;;;;;6254843;28;20052;-69
2022/10/24 16:42:06;;;;;;;33.88;16.27;;;;;;;;;;6255713;28;20053;-67
2022/10/24 16:45:07;;;;;;;36.60;17.15;;;;;;;;;;6255284;28;20098;-68
2022/10/24 16:48:09;;;;;;;31.25;15.90;;;;;;;;;;6251495;28;20122;-64
2022/10/24 16:51:11;;;;;;;;;;;;;;;;;;6257692;28;20053;-66
2022/10/24 16:54:11;;;;;;;30.05;16.13;;;;;;;;;;6256409;28;20024;-64
2022/10/24 16:57:12;;;;;;;46.65;24.38;;;;;;;;;;6251105;28;20057;-67
2022/10/24 17:00:15;;;;;;;28.23;13.73;;;;;;;;;;6255888;28;20049;-65
2022/10/24 17:03:16;;;;;;;29.45;13.57;;;;;;;;;;6254946;28;20266;-65
2022/10/24 17:06:16;;;;;;;25.65;13.05;;;;;;;;;;6250403;28;20048;-72
2022/10/24 17:09:17;;;;;;;30.38;14.43;;;;;;;;;;6256475;28;20393;-68
2022/10/24 17:12:18;;;;;;;36.80;15.98;;;;;;;;;;6257626;28;20049;-63
2022/10/24 17:15:19;;;;;;;35.65;16.60;;;;;;;;;;6258889;28;20060;-63
2022/10/24 17:18:22;;;;;;;32.15;15.85;;;;;;;;;;6258177;28;20057;-70
2022/10/24 17:21:23;;;;;;;35.30;15.15;;;;;;;;;;6259857;28;20055;-65
2022/10/24 17:24:25;;;;;;;92.77;34.73;;;;;;;;;;6260614;28;20136;-65
2022/10/24 17:27:26;;;;;;;102.03;43.80;;;;;;;;;;6254251;28;21190;-68
2022/10/24 17:30:28;;;;;;;67.63;37.70;;;;;;;;;;6260988;28;20144;-71
2022/10/24 17:33:29;;;;;;;41.60;18.42;;;;;;;;;;6260330;28;20195;-68
2022/10/24 17:36:33;;;;;;;34.67;15.80;;;;;;;;;;6259345;28;20037;-70
2022/10/24 17:39:50;;;;;;;30.10;13.70;;;;;;;;;;6257032;28;20067;-64
2022/10/24 17:42:51;;;;;;;52.10;25.10;;;;;;;;;;6254253;28;20088;-64
2022/10/24 17:45:54;;;;;;;41.67;19.30;;;;;;;;;;6254020;28;20060;-74
2022/10/24 17:48:56;;;;;;;38.17;17.10;;;;;;;;;;6261107;28;20084;-67
2022/10/24 17:51:57;;;;;;;45.70;19.42;;;;;;;;;;6260971;28;20139;-68
2022/10/24 17:54:57;;;;;;;50.50;23.38;;;;;;;;;;6260335;28;20052;-64
2022/10/24 17:57:58;;;;;;;56.53;24.95;;;;;;;;;;6258143;28;20083;-66